Time;durP1;ratioP1;P1;durP2;ratioP2;P2;SDS_P1;SDS_P2;PMS_P1;PMS_P2;Temp;Humidity;BMP_temperature;BMP_pressure;BME280_temperature;BME280_humidity;BME280_pressure;Samples;Min_cycle;Max_cycle;Signal;HPM_P1;HPM_P2
2023/10/22 00:02:09;;;;;;;3.13;2.00;;;12.50;99.90;;;;;;4954845;28;20031;-75
2023/10/22 00:04:35;;;;;;;6.90;2.35;;;12.50;99.90;;;;;;4969486;28;20042;-73
2023/10/22 00:07:00;;;;;;;2.90;1.73;;;12.50;99.90;;;;;;4974125;28;20030;-74
2023/10/22 00:09:26;;;;;;;2.85;1.73;;;12.50;99.90;;;;;;4970622;28;20030;-74
2023/10/22 00:11:51;;;;;;;3.65;1.67;;;12.50;99.90;;;;;;4969454;28;20490;-74
2023/10/22 00:14:17;;;;;;;1.88;1.38;;;12.50;99.90;;;;;;4967125;28;20034;-73
2023/10/22 00:16:42;;;;;;;1.98;1.25;;;12.50;99.90;;;;;;4971757;28;20557;-74
2023/10/22 00:19:08;;;;;;;4.60;1.40;;;12.50;99.90;;;;;;4966687;28;20031;-75
2023/10/22 00:21:34;;;;;;;1.95;1.52;;;12.50;99.90;;;;;;4969236;28;20077;-74
2023/10/22 00:23:59;;;;;;;1.98;0.90;;;12.50;99.90;;;;;;4958093;28;20026;-75
2023/10/22 00:26:25;;;;;;;1.52;1.02;;;12.40;99.90;;;;;;4974380;28;20030;-75
2023/10/22 00:28:51;;;;;;;2.63;1.40;;;12.40;99.90;;;;;;4969658;28;20027;-75
2023/10/22 00:31:16;;;;;;;2.50;1.02;;;12.40;99.90;;;;;;4969796;28;20054;-75
2023/10/22 00:33:42;;;;;;;2.13;1.27;;;12.40;99.90;;;;;;4971449;28;20137;-75
2023/10/22 00:36:08;;;;;;;3.03;1.20;;;12.40;99.90;;;;;;4969911;28;20030;-75
2023/10/22 00:38:33;;;;;;;1.55;1.30;;;12.40;99.90;;;;;;4975743;28;20026;-75
2023/10/22 00:40:59;;;;;;;3.90;1.20;;;12.40;99.90;;;;;;4956109;28;20114;-74
2023/10/22 00:43:25;;;;;;;2.55;1.20;;;12.40;99.90;;;;;;4968484;28;20029;-74
2023/10/22 00:45:52;;;;;;;2.90;1.33;;;12.30;99.90;;;;;;4968720;28;20240;-74
2023/10/22 00:48:20;;;;;;;3.88;1.75;;;12.30;99.90;;;;;;4963899;28;20019;-75
2023/10/22 00:50:46;;;;;;;2.97;1.52;;;12.30;99.90;;;;;;4960400;28;20565;-74
2023/10/22 00:53:16;;;;;;;2.95;1.40;;;12.30;99.90;;;;;;4970262;28;20022;-74
2023/10/22 00:55:45;;;;;;;4.38;1.40;;;12.30;99.90;;;;;;4954897;28;20058;-75
2023/10/22 00:58:12;;;;;;;2.38;1.40;;;12.30;99.90;;;;;;4968399;28;20101;-74
2023/10/22 01:00:38;;;;;;;3.40;1.42;;;12.30;99.90;;;;;;4973132;28;20493;-74
2023/10/22 01:03:04;;;;;;;4.07;1.40;;;12.20;99.90;;;;;;4972425;28;20041;-73
2023/10/22 01:05:30;;;;;;;4.30;1.75;;;12.20;99.90;;;;;;4956828;28;20422;-74
2023/10/22 01:07:57;;;;;;;2.80;1.48;;;12.20;99.90;;;;;;4972832;28;20026;-75
2023/10/22 01:10:23;;;;;;;6.03;2.70;;;12.20;99.90;;;;;;4956785;28;20069;-75
2023/10/22 01:12:49;;;;;;;4.43;2.45;;;12.20;99.90;;;;;;4970177;28;20083;-75
2023/10/22 01:15:14;;;;;;;4.85;1.92;;;12.20;99.90;;;;;;4970030;28;20505;-75
2023/10/22 01:17:40;;;;;;;3.38;1.63;;;12.20;99.90;;;;;;4956584;28;20139;-74
2023/10/22 01:20:09;;;;;;;4.95;2.20;;;12.10;99.90;;;;;;4970671;28;20030;-74
2023/10/22 01:22:34;;;;;;;2.85;1.30;;;12.10;99.90;;;;;;4971589;28;20114;-75
2023/10/22 01:25:00;;;;;;;3.92;1.60;;;12.10;99.90;;;;;;4972763;28;20105;-74
2023/10/22 01:27:26;;;;;;;6.40;1.70;;;12.10;99.90;;;;;;4955001;28;20034;-73
2023/10/22 01:29:52;;;;;;;6.05;3.65;;;12.00;99.90;;;;;;4971144;28;20015;-74
2023/10/22 01:32:18;;;;;;;3.90;1.73;;;12.00;99.90;;;;;;4972682;28;20042;-74
2023/10/22 01:34:43;;;;;;;4.68;2.00;;;12.00;99.90;;;;;;4951015;28;20410;-73
2023/10/22 01:37:09;;;;;;;5.32;1.77;;;12.00;99.90;;;;;;4970683;28;20030;-74
2023/10/22 01:39:34;;;;;;;3.90;1.10;;;12.00;99.90;;;;;;4970605;28;20069;-73
2023/10/22 01:42:00;;;;;;;4.25;1.45;;;12.00;99.90;;;;;;4970436;28;20026;-75
2023/10/22 01:44:25;;;;;;;3.92;1.55;;;12.00;99.90;;;;;;4953007;28;20385;-75
2023/10/22 01:46:52;;;;;;;6.22;1.05;;;12.00;99.90;;;;;;4970575;28;20485;-75
2023/10/22 01:49:18;;;;;;;3.75;2.22;;;11.90;99.90;;;;;;4971494;28;20019;-75
2023/10/22 01:51:43;;;;;;;2.10;1.40;;;11.90;99.90;;;;;;4960008;28;20019;-75
2023/10/22 01:54:09;;;;;;;4.40;1.23;;;11.90;99.90;;;;;;4970884;28;20033;-75
2023/10/22 01:56:35;;;;;;;1.65;1.35;;;11.90;99.90;;;;;;4970551;28;20110;-75
2023/10/22 01:59:01;;;;;;;2.90;1.25;;;11.90;99.90;;;;;;4966563;28;20122;-75
2023/10/22 02:01:26;;;;;;;2.60;1.17;;;11.90;99.90;;;;;;4974593;28;20121;-75
2023/10/22 02:03:52;;;;;;;1.75;1.20;;;11.90;99.90;;;;;;4971279;28;20027;-76
2023/10/22 02:06:18;;;;;;;2.72;1.67;;;11.90;99.90;;;;;;4974805;28;20426;-75
2023/10/22 02:08:46;;;;;;;1.80;1.45;;;11.90;99.90;;;;;;4973066;28;20018;-75
2023/10/22 02:11:12;;;;;;;2.30;1.55;;;11.90;99.90;;;;;;4969872;28;20027;-75
2023/10/22 02:13:38;;;;;;;3.53;1.50;;;11.80;99.90;;;;;;4968278;28;20760;-74
2023/10/22 02:16:04;;;;;;;2.65;1.48;;;11.80;99.90;;;;;;4972683;28;20038;-75
2023/10/22 02:18:30;;;;;;;2.22;1.42;;;11.80;99.90;;;;;;4972903;28;20027;-74
2023/10/22 02:21:00;;;;;;;4.32;1.73;;;11.80;99.90;;;;;;4955380;28;20026;-74
2023/10/22 02:23:27;;;;;;;2.42;1.50;;;11.70;99.90;;;;;;4953755;29;20351;-75
2023/10/22 02:25:52;;;;;;;3.17;1.65;;;11.70;99.90;;;;;;4955629;28;20395;-74
2023/10/22 02:28:18;;;;;;;3.83;2.00;;;11.70;99.90;;;;;;4970366;28;20031;-75
2023/10/22 02:30:47;;;;;;;4.70;2.47;;;11.70;99.90;;;;;;4973756;28;20091;-75
2023/10/22 02:33:13;;;;;;;3.08;2.17;;;11.70;99.90;;;;;;4972873;28;20018;-75
2023/10/22 02:35:43;;;;;;;4.22;2.85;;;11.60;99.90;;;;;;4972673;28;20497;-75
2023/10/22 02:38:13;;;;;;;4.90;2.88;;;11.60;99.90;;;;;;4967379;28;20027;-74
2023/10/22 02:40:39;;;;;;;3.33;2.67;;;11.60;99.90;;;;;;4970434;28;20030;-75
2023/10/22 02:43:05;;;;;;;4.03;2.83;;;11.60;99.90;;;;;;4971486;28;20069;-74
2023/10/22 02:45:31;;;;;;;5.30;2.50;;;11.50;99.90;;;;;;4970821;28;20462;-74
2023/10/22 02:47:58;;;;;;;7.43;2.88;;;11.50;99.90;;;;;;4970552;28;20042;-75
2023/10/22 02:50:24;;;;;;;5.20;2.53;;;11.50;99.90;;;;;;4964954;28;20046;-74
2023/10/22 02:52:50;;;;;;;3.55;2.17;;;11.50;99.90;;;;;;4968789;28;20390;-74
2023/10/22 02:55:17;;;;;;;3.95;2.58;;;11.40;99.90;;;;;;4970064;28;20023;-75
2023/10/22 02:57:43;;;;;;;7.05;2.53;;;11.40;99.90;;;;;;4954380;28;20042;-75
2023/10/22 03:00:12;;;;;;;4.05;2.72;;;11.40;99.90;;;;;;4964535;28;20047;-75
2023/10/22 03:02:38;;;;;;;3.75;2.45;;;11.40;99.90;;;;;;4972015;28;20029;-75
2023/10/22 03:05:04;;;;;;;4.22;2.00;;;11.40;99.90;;;;;;4973161;28;20039;-75
2023/10/22 03:07:30;;;;;;;2.92;2.05;;;11.40;99.90;;;;;;4970880;28;20422;-75
2023/10/22 03:09:56;;;;;;;2.80;2.22;;;11.40;99.90;;;;;;4965897;28;20372;-75
2023/10/22 03:12:21;;;;;;;4.85;2.67;;;11.40;99.90;;;;;;4966159;28;20035;-75
2023/10/22 03:14:50;;;;;;;3.67;2.08;;;11.40;99.90;;;;;;4954437;28;20103;-75
2023/10/22 03:17:17;;;;;;;4.20;2.25;;;11.40;99.90;;;;;;4969181;28;20031;-75
2023/10/22 03:19:42;;;;;;;5.07;2.35;;;11.40;99.90;;;;;;4967980;28;20117;-75
2023/10/22 03:22:08;;;;;;;4.40;2.80;;;11.40;99.90;;;;;;4970445;28;20106;-76
2023/10/22 03:24:34;;;;;;;3.40;2.35;;;11.30;99.90;;;;;;4957014;28;20216;-76
2023/10/22 03:27:00;;;;;;;4.05;2.20;;;11.30;99.90;;;;;;4958896;28;20065;-76
2023/10/22 03:29:26;;;;;;;3.45;2.33;;;11.30;99.90;;;;;;4970658;28;20110;-76
2023/10/22 03:31:52;;;;;;;4.22;2.42;;;11.30;99.90;;;;;;4968820;28;20074;-75
2023/10/22 03:34:17;;;;;;;4.68;1.95;;;11.30;99.90;;;;;;4970338;28;20031;-76
2023/10/22 03:36:44;;;;;;;4.50;2.20;;;11.30;99.90;;;;;;4965727;28;20465;-75
2023/10/22 03:39:10;;;;;;;3.45;2.20;;;11.30;99.90;;;;;;4952261;28;20030;-74
2023/10/22 03:41:36;;;;;;;3.25;2.00;;;11.30;99.90;;;;;;4948756;28;20030;-75
2023/10/22 03:44:02;;;;;;;3.47;1.50;;;11.30;99.90;;;;;;4958785;28;20538;-74
2023/10/22 03:46:27;;;;;;;2.00;1.55;;;11.20;99.90;;;;;;4971710;28;20026;-75
2023/10/22 03:48:56;;;;;;;3.65;1.73;;;11.20;99.90;;;;;;4976245;28;20014;-75
2023/10/22 03:51:22;;;;;;;3.13;1.50;;;11.20;99.90;;;;;;4967182;28;20114;-75
2023/10/22 03:53:48;;;;;;;2.65;1.17;;;11.20;99.90;;;;;;4957356;28;20046;-75
2023/10/22 03:56:14;;;;;;;2.60;1.30;;;11.20;99.90;;;;;;4968722;28;20453;-75
2023/10/22 03:58:40;;;;;;;2.42;1.27;;;11.20;99.90;;;;;;4973868;28;20092;-75
2023/10/22 04:01:06;;;;;;;2.00;1.30;;;11.20;99.90;;;;;;4969571;28;20088;-74
2023/10/22 04:03:31;;;;;;;3.13;1.50;;;11.20;99.90;;;;;;4973279;28;20031;-75
2023/10/22 04:05:58;;;;;;;4.55;1.80;;;11.10;99.90;;;;;;4958554;28;20082;-74
2023/10/22 04:08:24;;;;;;;5.38;1.80;;;11.10;99.90;;;;;;4973262;28;20019;-75
2023/10/22 04:10:51;;;;;;;4.35;1.85;;;11.20;99.90;;;;;;4967719;28;20109;-75
2023/10/22 04:13:17;;;;;;;4.78;1.60;;;11.10;99.90;;;;;;4970035;28;20065;-75
2023/10/22 04:15:45;;;;;;;3.67;1.52;;;11.10;99.90;;;;;;4957984;28;20641;-75
2023/10/22 04:18:10;;;;;;;2.97;1.50;;;11.10;99.90;;;;;;4972025;28;20026;-75
2023/10/22 04:20:36;;;;;;;2.90;1.20;;;11.10;99.90;;;;;;4973634;28;20117;-75
2023/10/22 04:23:02;;;;;;;2.00;1.17;;;11.10;99.90;;;;;;4970714;28;20073;-75
2023/10/22 04:25:28;;;;;;;4.10;1.42;;;11.10;99.90;;;;;;4972657;28;20960;-75
2023/10/22 04:27:54;;;;;;;1.88;1.30;;;11.00;99.90;;;;;;4971036;28;20029;-75
2023/10/22 04:30:20;;;;;;;3.10;1.25;;;11.00;99.90;;;;;;4973750;28;20043;-75
2023/10/22 04:32:46;;;;;;;2.30;0.98;;;11.00;99.90;;;;;;4973444;28;20027;-75
2023/10/22 04:35:12;;;;;;;2.58;1.10;;;11.00;99.90;;;;;;4956811;28;20442;-75
2023/10/22 04:37:38;;;;;;;3.30;1.10;;;11.00;99.90;;;;;;4973274;28;20030;-75
2023/10/22 04:40:04;;;;;;;1.75;1.20;;;11.00;99.90;;;;;;4972025;28;20027;-75
2023/10/22 04:42:29;;;;;;;2.65;1.05;;;10.90;99.90;;;;;;4970927;28;20039;-75
2023/10/22 04:44:55;;;;;;;3.10;0.90;;;10.90;99.90;;;;;;4971291;28;20030;-75
2023/10/22 04:47:21;;;;;;;2.45;0.90;;;10.90;99.90;;;;;;4974713;28;20023;-75
2023/10/22 04:49:47;;;;;;;2.50;1.10;;;10.90;99.90;;;;;;4971945;28;20030;-76
2023/10/22 04:52:22;;;;;;;2.05;0.70;;;10.80;99.90;;;;;;4968847;28;20042;-75
2023/10/22 04:54:49;;;;;;;2.58;0.90;;;10.80;99.90;;;;;;4973623;28;20027;-75
2023/10/22 04:57:15;;;;;;;4.07;1.17;;;10.80;99.90;;;;;;4967924;28;20031;-75
2023/10/22 04:59:41;;;;;;;1.65;0.95;;;10.80;99.90;;;;;;4973317;28;20042;-74
2023/10/22 05:02:06;;;;;;;2.78;1.27;;;10.70;99.90;;;;;;4971107;28;20147;-74
2023/10/22 05:04:32;;;;;;;3.25;1.65;;;10.80;99.90;;;;;;4971399;28;20430;-74
2023/10/22 05:06:58;;;;;;;2.85;1.45;;;10.70;99.90;;;;;;4955644;28;20027;-75
2023/10/22 05:09:23;;;;;;;2.00;1.00;;;10.70;99.90;;;;;;4967547;28;20023;-75
2023/10/22 05:11:49;;;;;;;1.98;0.90;;;10.70;99.90;;;;;;4958281;28;20030;-75
2023/10/22 05:14:14;;;;;;;2.55;1.13;;;10.70;99.90;;;;;;4967873;28;20023;-75
2023/10/22 05:16:40;;;;;;;2.60;1.27;;;10.70;99.90;;;;;;4970844;28;20444;-75
2023/10/22 05:19:05;;;;;;;2.95;0.90;;;10.70;99.90;;;;;;4968737;28;20031;-76
2023/10/22 05:21:31;;;;;;;2.40;1.08;;;10.70;99.90;;;;;;4973188;28;20027;-75
2023/10/22 05:23:57;;;;;;;2.78;1.52;;;10.70;99.90;;;;;;4971103;28;20040;-75
2023/10/22 05:26:22;;;;;;;3.25;1.02;;;10.70;99.90;;;;;;4975260;28;20030;-75
2023/10/22 05:28:48;;;;;;;2.65;1.58;;;10.70;99.90;;;;;;4957431;28;20050;-74
2023/10/22 05:31:19;;;;;;;1.70;1.17;;;10.60;99.90;;;;;;4960902;28;20031;-75
2023/10/22 05:33:45;;;;;;;2.03;1.02;;;10.60;99.90;;;;;;4974302;28;20019;-74
2023/10/22 05:36:18;;;;;;;2.85;1.10;;;10.60;99.90;;;;;;4969313;28;20027;-75
2023/10/22 05:38:45;;;;;;;2.72;1.10;;;10.60;99.90;;;;;;4955466;28;20027;-75
2023/10/22 05:41:28;;;;;;;3.60;1.27;;;10.50;99.90;;;;;;4955944;28;20045;-75
2023/10/22 05:44:01;;;;;;;2.53;1.27;;;10.50;99.90;;;;;;4975358;28;20080;-75
2023/10/22 05:46:28;;;;;;;4.00;1.30;;;10.50;99.90;;;;;;4953731;28;20058;-74
2023/10/22 05:48:55;;;;;;;2.30;1.00;;;10.50;99.90;;;;;;4957363;28;20030;-75
2023/10/22 05:51:21;;;;;;;4.00;1.27;;;10.50;99.90;;;;;;4952323;28;20082;-74
2023/10/22 05:53:47;;;;;;;3.25;1.15;;;10.50;99.90;;;;;;4970131;28;20081;-75
2023/10/22 05:56:12;;;;;;;3.08;1.15;;;10.40;99.90;;;;;;4968701;28;20038;-75
2023/10/22 05:58:39;;;;;;;2.42;1.05;;;10.40;99.90;;;;;;4967238;28;20042;-75
2023/10/22 06:01:05;;;;;;;2.28;1.00;;;10.40;99.90;;;;;;4970317;28;20035;-75
2023/10/22 06:03:31;;;;;;;2.53;1.30;;;10.40;99.90;;;;;;4971539;28;20102;-75
2023/10/22 06:05:56;;;;;;;2.50;1.23;;;10.40;99.90;;;;;;4969048;28;20073;-76
2023/10/22 06:08:22;;;;;;;2.75;1.30;;;10.40;99.90;;;;;;4957270;28;20030;-74
2023/10/22 06:10:48;;;;;;;4.50;1.15;;;10.40;99.90;;;;;;4961786;28;20041;-76
2023/10/22 06:13:14;;;;;;;3.70;1.73;;;10.40;99.90;;;;;;4967613;28;20030;-73
2023/10/22 06:15:42;;;;;;;2.97;1.67;;;10.40;99.90;;;;;;4962298;28;20141;-74
2023/10/22 06:18:08;;;;;;;4.05;1.00;;;10.40;99.90;;;;;;4966578;28;20034;-73
2023/10/22 06:20:34;;;;;;;2.78;1.30;;;10.40;99.90;;;;;;4969768;28;20490;-73
2023/10/22 06:23:01;;;;;;;2.80;1.23;;;10.40;99.90;;;;;;4951070;28;20031;-73
2023/10/22 06:25:26;;;;;;;1.63;1.25;;;10.50;99.90;;;;;;4950562;28;20030;-72
2023/10/22 06:27:55;;;;;;;4.88;1.10;;;10.50;99.90;;;;;;4947373;28;20023;-72
2023/10/22 06:30:25;;;;;;;5.40;0.93;;;10.50;99.90;;;;;;4962306;28;20564;-73
2023/10/22 06:32:55;;;;;;;3.65;0.85;;;10.70;99.90;;;;;;4950297;28;20443;-75
2023/10/22 06:35:21;;;;;;;4.82;1.30;;;10.70;99.90;;;;;;4966819;28;20210;-74
2023/10/22 06:37:50;;;;;;;5.47;1.00;;;10.80;99.90;;;;;;4968062;28;20023;-73
2023/10/22 06:40:17;;;;;;;3.13;0.82;;;10.80;99.90;;;;;;4951202;28;20475;-73
2023/10/22 06:42:42;;;;;;;4.82;1.10;;;10.80;99.90;;;;;;4953284;28;20093;-75
2023/10/22 06:45:09;;;;;;;2.50;0.88;;;10.90;99.90;;;;;;4968928;28;20622;-75
2023/10/22 06:47:38;;;;;;;3.88;0.95;;;10.90;99.90;;;;;;4964201;28;20023;-75
2023/10/22 06:50:06;;;;;;;2.88;0.90;;;10.80;99.90;;;;;;4968630;28;20046;-74
2023/10/22 06:52:32;;;;;;;3.50;1.05;;;10.90;99.90;;;;;;4953928;28;20055;-75
2023/10/22 06:54:57;;;;;;;1.70;0.77;;;10.90;99.90;;;;;;4969736;28;20097;-77
2023/10/22 06:57:23;;;;;;;5.25;1.00;;;10.90;99.90;;;;;;4968483;28;20030;-76
2023/10/22 06:59:50;;;;;;;1.95;0.82;;;10.90;99.90;;;;;;4949664;28;20049;-78
2023/10/22 07:02:17;;;;;;;4.90;0.90;;;10.90;99.90;;;;;;4959518;28;20046;-77
2023/10/22 07:04:44;;;;;;;3.83;1.13;;;11.00;99.90;;;;;;4968746;28;20074;-76
2023/10/22 07:07:10;;;;;;;3.42;1.15;;;11.00;99.90;;;;;;4974509;28;20018;-75
2023/10/22 07:09:35;;;;;;;3.58;1.00;;;11.00;99.90;;;;;;4966739;28;20534;-75
2023/10/22 07:12:02;;;;;;;3.53;1.13;;;11.00;99.90;;;;;;4965051;28;20125;-75
2023/10/22 07:14:28;;;;;;;3.35;0.90;;;11.00;99.90;;;;;;4970178;28;20050;-76
2023/10/22 07:16:54;;;;;;;2.50;1.10;;;11.10;99.90;;;;;;4956121;28;20449;-76
2023/10/22 07:19:20;;;;;;;2.83;0.93;;;11.10;99.90;;;;;;4974701;28;20026;-75
2023/10/22 07:21:45;;;;;;;3.35;1.42;;;11.10;99.90;;;;;;4974958;28;20038;-75
2023/10/22 07:24:11;;;;;;;2.20;1.30;;;11.20;99.90;;;;;;4975620;28;20035;-75
2023/10/22 07:26:37;;;;;;;7.30;1.65;;;11.20;99.90;;;;;;4975045;28;20493;-76
2023/10/22 07:29:03;;;;;;;3.88;1.10;;;11.30;99.90;;;;;;4969986;28;20394;-75
2023/10/22 07:31:28;;;;;;;4.57;1.15;;;11.30;99.90;;;;;;4965765;28;20023;-75
2023/10/22 07:33:54;;;;;;;4.00;1.10;;;11.40;99.90;;;;;;4968931;28;20026;-74
2023/10/22 07:36:20;;;;;;;4.50;1.23;;;11.40;99.90;;;;;;4951877;28;20035;-77
2023/10/22 07:38:46;;;;;;;3.00;0.93;;;11.40;99.90;;;;;;4970373;28;20046;-76
2023/10/22 07:41:16;;;;;;;4.63;1.30;;;11.50;99.90;;;;;;4972172;28;20031;-75
2023/10/22 07:43:42;;;;;;;3.42;0.90;;;11.50;99.90;;;;;;4967061;28;20026;-77
2023/10/22 07:46:09;;;;;;;6.05;1.73;;;11.60;99.90;;;;;;4955916;28;20046;-76
2023/10/22 07:48:34;;;;;;;3.53;1.52;;;11.70;99.90;;;;;;4972953;28;20097;-77
2023/10/22 07:51:19;;;;;;;4.05;0.90;;;11.80;99.90;;;;;;4968973;28;20034;-76
2023/10/22 07:53:46;;;;;;;2.70;0.77;;;11.90;99.90;;;;;;4959370;28;20034;-76
2023/10/22 07:56:15;;;;;;;3.85;1.00;;;11.90;99.90;;;;;;4958141;28;20031;-77
2023/10/22 07:58:41;;;;;;;1.67;0.80;;;12.00;99.90;;;;;;4949188;28;20406;-77
2023/10/22 08:01:07;;;;;;;1.83;0.50;;;12.00;99.90;;;;;;4969907;28;20056;-76
2023/10/22 08:03:33;;;;;;;4.68;0.80;;;12.10;99.90;;;;;;4969604;28;20030;-76
2023/10/22 08:06:01;;;;;;;6.35;0.73;;;12.20;99.90;;;;;;4974580;28;20140;-76
2023/10/22 08:08:27;;;;;;;5.15;0.60;;;12.30;99.90;;;;;;4973245;28;20030;-77
2023/10/22 08:10:57;;;;;;;2.67;0.60;;;12.40;99.90;;;;;;4972037;28;20028;-76
2023/10/22 08:13:23;;;;;;;6.18;0.75;;;12.50;99.90;;;;;;4969880;28;21925;-76
2023/10/22 08:15:49;;;;;;;3.00;0.95;;;12.60;99.90;;;;;;4968490;28;20045;-76
2023/10/22 08:18:15;;;;;;;4.35;0.80;;;12.60;99.90;;;;;;4968399;28;20401;-76
2023/10/22 08:20:41;;;;;;;3.90;0.70;;;12.70;99.90;;;;;;4974747;28;20031;-76
2023/10/22 08:23:07;;;;;;;3.63;0.90;;;12.80;99.90;;;;;;4967575;28;20047;-75
2023/10/22 08:25:33;;;;;;;2.92;0.50;;;12.80;99.90;;;;;;4955683;28;20026;-75
2023/10/22 08:27:58;;;;;;;4.13;0.60;;;12.90;99.90;;;;;;4969072;28;20398;-76
2023/10/22 08:30:24;;;;;;;3.20;0.60;;;12.90;99.90;;;;;;4973727;28;20449;-76
2023/10/22 08:32:51;;;;;;;5.22;0.77;;;13.00;99.90;;;;;;4973199;28;20022;-75
2023/10/22 08:35:16;;;;;;;2.42;0.60;;;13.00;99.90;;;;;;4971900;28;20053;-75
2023/10/22 08:37:42;;;;;;;2.03;0.38;;;13.10;99.90;;;;;;4970603;28;20394;-75
2023/10/22 08:40:08;;;;;;;4.78;0.82;;;13.10;99.90;;;;;;4971787;28;20467;-75
2023/10/22 08:42:36;;;;;;;4.50;0.75;;;13.20;99.90;;;;;;4974076;28;20045;-76
2023/10/22 08:45:07;;;;;;;1.50;0.60;;;13.30;99.90;;;;;;4955471;28;20031;-75
2023/10/22 08:47:34;;;;;;;2.15;0.57;;;13.30;99.90;;;;;;4972570;28;20023;-74
2023/10/22 08:50:01;;;;;;;3.83;0.70;;;13.40;99.90;;;;;;4953131;28;20040;-76
2023/10/22 08:52:27;;;;;;;4.00;0.80;;;13.40;99.90;;;;;;4967367;28;20023;-74
2023/10/22 08:54:52;;;;;;;6.40;0.98;;;13.50;99.90;;;;;;4954981;28;20134;-74
2023/10/22 08:57:21;;;;;;;5.03;0.80;;;13.50;99.90;;;;;;4955723;28;20807;-77
2023/10/22 08:59:47;;;;;;;5.35;0.70;;;13.50;99.90;;;;;;4974428;28;20031;-77
2023/10/22 09:02:21;;;;;;;3.88;0.52;;;13.60;99.90;;;;;;4970977;28;20035;-77
2023/10/22 09:04:47;;;;;;;2.72;1.05;;;13.70;99.90;;;;;;4950245;28;20050;-76
2023/10/22 09:07:13;;;;;;;6.40;0.95;;;13.70;99.90;;;;;;4952724;28;20031;-76
2023/10/22 09:09:39;;;;;;;1.83;0.60;;;13.70;99.90;;;;;;4970339;28;20414;-78
2023/10/22 09:12:10;;;;;;;1.63;0.85;;;13.80;99.90;;;;;;4970884;28;20023;-77
2023/10/22 09:14:36;;;;;;;5.88;0.80;;;13.80;99.90;;;;;;4973972;28;20018;-75
2023/10/22 09:17:19;;;;;;;3.63;1.00;;;13.90;99.90;;;;;;4955824;28;20027;-75
2023/10/22 09:19:48;;;;;;;3.97;0.80;;;13.90;99.90;;;;;;4973478;28;20023;-76
2023/10/22 09:22:25;;;;;;;3.00;0.77;;;14.00;99.90;;;;;;4972663;28;20027;-76
2023/10/22 09:24:54;;;;;;;3.28;0.82;;;14.00;99.90;;;;;;4969435;28;20047;-76
2023/10/22 09:27:24;;;;;;;1.15;0.40;;;14.10;99.90;;;;;;4962979;28;20102;-76
2023/10/22 09:29:50;;;;;;;3.45;0.65;;;14.10;99.90;;;;;;4967083;28;20034;-76
2023/10/22 09:32:16;;;;;;;4.25;0.73;;;14.10;99.90;;;;;;4972640;28;20030;-76
2023/10/22 09:34:41;;;;;;;5.05;0.93;;;14.20;99.90;;;;;;4952085;28;20027;-77
2023/10/22 09:37:07;;;;;;;4.13;0.80;;;14.30;99.90;;;;;;4971089;28;20474;-76
2023/10/22 09:39:33;;;;;;;2.50;0.88;;;14.30;99.90;;;;;;4955418;28;20070;-75
2023/10/22 09:41:59;;;;;;;3.00;0.80;;;14.40;99.90;;;;;;4960281;28;20023;-75
2023/10/22 09:44:26;;;;;;;3.78;0.70;;;14.50;99.90;;;;;;4955497;28;20631;-76
2023/10/22 09:46:54;;;;;;;3.50;0.70;;;14.60;99.90;;;;;;4975003;28;20050;-77
2023/10/22 09:49:22;;;;;;;7.30;0.82;;;14.70;99.90;;;;;;4972887;28;20038;-76
2023/10/22 09:51:50;;;;;;;2.63;0.85;;;14.80;99.90;;;;;;4972391;28;20030;-78
2023/10/22 09:54:19;;;;;;;4.07;0.90;;;14.80;99.90;;;;;;4973252;28;20027;-76
2023/10/22 09:56:50;;;;;;;3.05;0.70;;;14.90;99.50;;;;;;4970428;28;20391;-77
2023/10/22 09:59:17;;;;;;;2.75;1.15;;;15.00;99.40;;;;;;4970761;28;20042;-77
2023/10/22 10:01:43;;;;;;;2.55;0.70;;;15.10;99.30;;;;;;4968437;28;20019;-77
2023/10/22 10:04:11;;;;;;;2.88;0.60;;;15.10;99.20;;;;;;4973274;28;20049;-76
2023/10/22 10:06:38;;;;;;;1.60;0.68;;;15.20;99.10;;;;;;4970339;28;20022;-75
2023/10/22 10:09:04;;;;;;;1.83;0.70;;;15.20;99.00;;;;;;4965584;28;20018;-76
2023/10/22 10:11:31;;;;;;;2.75;0.85;;;15.30;98.80;;;;;;4969855;28;20096;-76
2023/10/22 10:13:58;;;;;;;1.92;0.50;;;15.30;98.80;;;;;;4972890;28;20069;-77
2023/10/22 10:16:24;;;;;;;3.90;1.15;;;15.30;99.00;;;;;;4970450;28;20019;-77
2023/10/22 10:19:03;;;;;;;3.08;0.82;;;15.30;98.90;;;;;;4970230;28;20031;-76
2023/10/22 10:21:38;;;;;;;4.32;1.27;;;15.30;98.80;;;;;;4955370;28;20026;-76
2023/10/22 10:24:25;;;;;;;7.13;1.02;;;15.30;98.50;;;;;;4967632;28;20030;-77
2023/10/22 10:26:56;;;;;;;4.78;0.70;;;15.20;98.30;;;;;;4972001;28;20026;-78
2023/10/22 10:29:32;;;;;;;2.50;0.70;;;15.10;98.70;;;;;;4966755;28;20034;-76
2023/10/22 10:32:12;;;;;;;1.90;0.50;;;15.00;98.60;;;;;;4949619;28;20569;-77
2023/10/22 10:34:40;;;;;;;2.50;0.82;;;15.00;99.00;;;;;;4970792;28;20025;-76
2023/10/22 10:37:11;;;;;;;3.95;0.80;;;15.00;99.00;;;;;;4950820;28;20022;-77
2023/10/22 10:39:46;;;;;;;2.50;0.60;;;15.00;99.10;;;;;;4962628;28;21487;-77
2023/10/22 10:42:38;;;;;;;2.45;0.60;;;15.00;98.90;;;;;;4967339;28;20648;-77
2023/10/22 10:45:06;;;;;;;1.30;0.50;;;15.10;98.90;;;;;;4969736;28;20443;-77
2023/10/22 10:47:40;;;;;;;2.80;0.55;;;15.20;98.70;;;;;;4965539;28;21807;-76
2023/10/22 10:50:18;;;;;;;5.15;0.60;;;15.30;98.50;;;;;;4974654;28;20026;-76
2023/10/22 10:52:44;;;;;;;2.05;0.50;;;15.50;97.90;;;;;;4968261;28;20023;-76
2023/10/22 10:55:19;;;;;;;2.50;0.70;;;15.60;97.80;;;;;;4971319;28;20146;-76
2023/10/22 10:57:50;;;;;;;2.85;0.70;;;15.70;97.30;;;;;;4955970;28;20993;-77
2023/10/22 11:00:26;;;;;;;3.55;0.80;;;15.80;97.20;;;;;;4972363;28;20037;-77
2023/10/22 11:02:53;;;;;;;1.60;0.70;;;15.80;97.10;;;;;;4971173;28;20080;-75
2023/10/22 11:05:42;;;;;;;2.00;0.52;;;15.80;96.80;;;;;;4968291;28;20532;-77
2023/10/22 11:08:11;;;;;;;1.50;0.50;;;15.70;96.80;;;;;;4973925;28;20084;-77
2023/10/22 11:10:36;;;;;;;3.03;0.88;;;15.70;97.30;;;;;;4972375;28;20028;-77
2023/10/22 11:13:05;;;;;;;1.90;0.60;;;15.60;97.20;;;;;;4959673;28;20029;-75
2023/10/22 11:15:32;;;;;;;2.65;0.60;;;15.60;97.10;;;;;;4972364;28;20110;-74
2023/10/22 11:18:06;;;;;;;2.42;0.60;;;15.60;97.20;;;;;;4971171;28;20038;-76
2023/10/22 11:20:33;;;;;;;2.25;0.60;;;15.60;97.10;;;;;;4974538;28;20030;-76
2023/10/22 11:22:59;;;;;;;2.95;0.80;;;15.60;97.50;;;;;;4976222;28;20492;-76
2023/10/22 11:25:26;;;;;;;3.88;0.82;;;15.60;97.50;;;;;;4978242;28;20426;-76
2023/10/22 11:27:52;;;;;;;4.22;0.93;;;15.60;97.30;;;;;;4952772;28;20134;-76
2023/10/22 11:30:41;;;;;;;1.42;0.60;;;15.60;97.20;;;;;;4971221;28;20026;-76
2023/10/22 11:33:25;;;;;;;3.28;0.82;;;15.60;97.10;;;;;;4972524;28;20089;-77
2023/10/22 11:35:53;;;;;;;2.88;0.70;;;15.60;96.80;;;;;;4954025;28;20047;-78
2023/10/22 11:38:21;;;;;;;4.40;0.90;;;15.60;96.50;;;;;;4971168;28;20512;-77
2023/10/22 11:40:53;;;;;;;1.75;0.70;;;15.70;96.70;;;;;;4968774;28;20492;-72
2023/10/22 11:43:19;;;;;;;2.63;1.00;;;15.70;96.90;;;;;;4973486;28;20022;-76
2023/10/22 11:45:52;;;;;;;3.08;0.80;;;15.70;96.40;;;;;;4953934;28;20042;-75
2023/10/22 11:48:19;;;;;;;3.20;0.95;;;15.70;96.30;;;;;;4971440;28;20023;-77
2023/10/22 11:50:47;;;;;;;3.40;0.75;;;15.80;95.60;;;;;;4961678;28;20023;-77
2023/10/22 11:53:13;;;;;;;3.53;0.80;;;15.90;95.50;;;;;;4968632;28;20066;-77
2023/10/22 11:55:39;;;;;;;2.15;0.60;;;15.90;95.40;;;;;;4955292;28;20434;-78
2023/10/22 11:58:18;;;;;;;3.22;0.93;;;15.90;95.20;;;;;;4974870;28;20030;-76
2023/10/22 12:00:48;;;;;;;2.58;0.90;;;15.90;95.10;;;;;;4967214;28;20141;-77
2023/10/22 12:03:14;;;;;;;2.30;0.98;;;15.90;95.50;;;;;;4966921;28;20039;-76
2023/10/22 12:05:40;;;;;;;2.30;1.10;;;15.90;95.60;;;;;;4976580;28;20032;-77
2023/10/22 12:08:06;;;;;;;2.30;0.82;;;15.90;95.30;;;;;;4971074;28;20027;-76
2023/10/22 12:10:31;;;;;;;7.70;1.10;;;15.90;95.50;;;;;;4959289;28;20470;-76
2023/10/22 12:12:57;;;;;;;2.45;0.73;;;15.90;95.00;;;;;;4972749;28;20019;-77
2023/10/22 12:15:23;;;;;;;2.97;0.90;;;15.90;95.00;;;;;;4973417;28;20153;-77
2023/10/22 12:17:49;;;;;;;6.68;1.05;;;15.90;95.30;;;;;;4972000;28;20054;-76
2023/10/22 12:20:15;;;;;;;4.40;0.65;;;15.90;95.20;;;;;;4973391;28;20553;-76
2023/10/22 12:22:40;;;;;;;3.88;0.70;;;15.90;94.90;;;;;;4976790;28;20033;-76
2023/10/22 12:25:07;;;;;;;2.45;0.90;;;15.90;94.40;;;;;;4976669;28;20059;-76
2023/10/22 12:27:32;;;;;;;2.00;1.00;;;15.90;94.40;;;;;;4973362;28;20480;-77
2023/10/22 12:29:58;;;;;;;5.18;0.60;;;15.90;94.50;;;;;;4966204;28;20031;-77
2023/10/22 12:32:24;;;;;;;3.10;0.93;;;16.00;94.30;;;;;;4959667;28;20022;-77
2023/10/22 12:34:50;;;;;;;3.97;0.95;;;15.90;94.30;;;;;;4956887;28;20490;-75
2023/10/22 12:37:15;;;;;;;2.75;0.88;;;15.90;94.80;;;;;;4973676;28;20475;-76
2023/10/22 12:39:42;;;;;;;3.40;1.17;;;15.90;94.70;;;;;;4974175;28;20107;-77
2023/10/22 12:42:08;;;;;;;1.60;0.75;;;15.90;94.60;;;;;;4976536;28;20122;-77
2023/10/22 12:44:34;;;;;;;3.80;0.80;;;15.90;94.50;;;;;;4975141;28;20102;-77
2023/10/22 12:47:00;;;;;;;3.83;1.05;;;15.90;94.30;;;;;;4976878;28;20585;-76
2023/10/22 12:49:26;;;;;;;3.10;0.80;;;15.90;94.30;;;;;;4973695;28;20015;-77